createdAt,value
2023-03-07T00:00:16.000Z,71.95
2023-03-07T00:01:34.000Z,71.97
2023-03-07T00:02:16.000Z,71.96
2023-03-07T00:03:17.000Z,71.91
2023-03-07T00:04:16.000Z,71.99
2023-03-07T00:05:17.000Z,72.01
2023-03-07T00:06:17.000Z,71.98
2023-03-07T00:07:16.000Z,71.91
2023-03-07T00:08:16.000Z,71.98
2023-03-07T00:09:16.000Z,71.90
2023-03-07T00:10:16.000Z,71.91
2023-03-07T00:11:17.000Z,71.95
2023-03-07T00:12:16.000Z,71.91
2023-03-07T00:13:16.000Z,71.81
2023-03-07T00:14:16.000Z,71.79
2023-03-07T00:15:17.000Z,71.75
2023-03-07T00:16:19.000Z,71.52
2023-03-07T00:17:16.000Z,71.49
2023-03-07T00:18:16.000Z,71.60
2023-03-07T00:19:17.000Z,71.64
2023-03-07T00:20:16.000Z,71.72
2023-03-07T00:21:19.000Z,71.67
2023-03-07T00:22:16.000Z,71.71
2023-03-07T00:23:15.000Z,71.54
2023-03-07T00:24:16.000Z,71.47
2023-03-07T00:25:16.000Z,71.54
2023-03-07T00:26:18.000Z,71.46
2023-03-07T00:27:15.000Z,71.25
2023-03-07T00:28:15.000Z,71.27
2023-03-07T00:29:15.000Z,71.16
2023-03-07T00:30:16.000Z,71.10
2023-03-07T00:31:17.000Z,71.20
2023-03-07T00:32:16.000Z,71.26
2023-03-07T00:33:16.000Z,71.19
2023-03-07T00:34:16.000Z,71.14
2023-03-07T00:35:16.000Z,71.15
2023-03-07T00:36:20.000Z,71.14
2023-03-07T00:37:16.000Z,70.94
2023-03-07T00:38:15.000Z,70.95
2023-03-07T00:39:15.000Z,70.92
2023-03-07T00:40:16.000Z,70.96
2023-03-07T00:41:30.000Z,71.02
2023-03-07T00:42:16.000Z,70.97
2023-03-07T00:43:15.000Z,70.86
2023-03-07T00:44:16.000Z,70.87
2023-03-07T00:45:15.000Z,70.72
2023-03-07T00:46:17.000Z,70.64
2023-03-07T00:47:16.000Z,70.59
2023-03-07T00:48:16.000Z,70.56
2023-03-07T00:49:16.000Z,70.62
2023-03-07T00:50:16.000Z,70.67
2023-03-07T00:51:18.000Z,70.70
2023-03-07T00:52:16.000Z,70.67
2023-03-07T00:53:16.000Z,70.73
2023-03-07T00:54:16.000Z,70.79
2023-03-07T00:55:16.000Z,70.89
2023-03-07T00:56:18.000Z,70.87
2023-03-07T00:57:16.000Z,70.78
2023-03-07T00:58:16.000Z,70.73
2023-03-07T00:59:16.000Z,70.92
2023-03-07T01:00:16.000Z,71.00
2023-03-07T01:01:19.000Z,70.85
2023-03-07T01:02:16.000Z,71.01
2023-03-07T01:03:16.000Z,70.97
2023-03-07T01:04:16.000Z,71.21
2023-03-07T01:05:16.000Z,71.22
2023-03-07T01:06:18.000Z,71.51
2023-03-07T01:07:16.000Z,71.68
2023-03-07T01:08:18.000Z,71.54
2023-03-07T01:09:16.000Z,71.67
2023-03-07T01:10:16.000Z,71.96
2023-03-07T01:11:16.000Z,72.24
2023-03-07T01:12:16.000Z,72.41
2023-03-07T01:13:17.000Z,72.23
2023-03-07T01:14:16.000Z,72.33
2023-03-07T01:15:16.000Z,72.61
2023-03-07T01:16:19.000Z,73.11
2023-03-07T01:17:16.000Z,73.19
2023-03-07T01:18:16.000Z,73.09
2023-03-07T01:19:16.000Z,72.82
2023-03-07T01:20:16.000Z,72.97
2023-03-07T01:21:23.000Z,73.14
2023-03-07T01:22:16.000Z,73.06
2023-03-07T01:23:16.000Z,73.09
2023-03-07T01:24:16.000Z,73.06
2023-03-07T01:25:16.000Z,72.96
2023-03-07T01:26:19.000Z,73.20
2023-03-07T01:27:15.000Z,73.23
2023-03-07T01:28:15.000Z,73.42
2023-03-07T01:29:16.000Z,73.21
2023-03-07T01:30:16.000Z,73.47
2023-03-07T01:31:16.000Z,73.56
2023-03-07T01:32:16.000Z,73.62
2023-03-07T01:33:16.000Z,73.66
2023-03-07T01:34:15.000Z,73.64
2023-03-07T01:35:15.000Z,73.47
2023-03-07T01:36:19.000Z,73.43
2023-03-07T01:37:17.000Z,73.74
2023-03-07T01:38:16.000Z,73.86
2023-03-07T01:39:16.000Z,73.91
2023-03-07T01:40:16.000Z,73.97
2023-03-07T01:41:16.000Z,74.03
2023-03-07T01:42:16.000Z,73.84
2023-03-07T01:43:22.000Z,73.74
2023-03-07T01:44:21.000Z,73.98
2023-03-07T01:45:26.000Z,73.86
2023-03-07T01:46:32.000Z,73.95
2023-03-07T01:47:15.000Z,73.78
2023-03-07T01:48:16.000Z,73.87
2023-03-07T01:49:20.000Z,73.95
2023-03-07T01:50:17.000Z,73.97
2023-03-07T01:51:17.000Z,74.29
2023-03-07T01:52:25.000Z,74.37
2023-03-07T01:53:16.000Z,74.30
2023-03-07T01:54:19.000Z,74.45
2023-03-07T01:55:21.000Z,74.33
2023-03-07T01:56:16.000Z,74.45
2023-03-07T01:57:19.000Z,74.69
2023-03-07T01:58:17.000Z,74.70
2023-03-07T01:59:23.000Z,74.95
2023-03-07T02:00:22.000Z,74.99
2023-03-07T02:01:16.000Z,75.21
2023-03-07T02:02:19.000Z,75.31
2023-03-07T02:03:23.000Z,75.15
2023-03-07T02:04:24.000Z,75.23
2023-03-07T02:05:24.000Z,75.53
2023-03-07T02:06:17.000Z,75.35
2023-03-07T02:07:20.000Z,75.17
2023-03-07T02:08:18.000Z,75.31
2023-03-07T02:09:19.000Z,75.42
2023-03-07T02:10:19.000Z,75.84
2023-03-07T02:11:16.000Z,76.21
2023-03-07T02:12:16.000Z,75.86
2023-03-07T02:13:16.000Z,75.82
2023-03-07T02:14:16.000Z,76.13
2023-03-07T02:15:16.000Z,76.16
2023-03-07T02:16:16.000Z,76.10
2023-03-07T02:17:17.000Z,76.24
2023-03-07T02:18:21.000Z,76.24
2023-03-07T02:19:36.000Z,76.63
2023-03-07T02:20:26.000Z,76.69
2023-03-07T02:21:26.000Z,76.92
2023-03-07T02:22:17.000Z,76.96
2023-03-07T02:23:24.000Z,77.32
2023-03-07T02:24:25.000Z,77.12
2023-03-07T02:25:23.000Z,76.97
2023-03-07T02:26:41.000Z,77.55
2023-03-07T02:27:15.000Z,78.11
2023-03-07T02:28:15.000Z,78.04
2023-03-07T02:29:15.000Z,78.07
2023-03-07T02:30:16.000Z,78.29
2023-03-07T02:31:15.000Z,78.52
2023-03-07T02:32:15.000Z,78.63
2023-03-07T02:33:15.000Z,78.62
2023-03-07T02:34:21.000Z,79.20
2023-03-07T02:35:21.000Z,78.79
2023-03-07T02:36:21.000Z,79.22
2023-03-07T02:37:23.000Z,79.25
2023-03-07T02:38:15.000Z,79.42
2023-03-07T02:39:18.000Z,79.82
2023-03-07T02:40:19.000Z,79.71
2023-03-07T02:41:22.000Z,80.16
2023-03-07T02:42:19.000Z,80.22
2023-03-07T02:43:16.000Z,80.16
2023-03-07T02:44:15.000Z,79.92
2023-03-07T02:45:16.000Z,80.21
2023-03-07T02:46:15.000Z,80.24
2023-03-07T02:47:15.000Z,80.45
2023-03-07T02:48:15.000Z,80.72
2023-03-07T02:49:16.000Z,80.72
2023-03-07T02:50:15.000Z,80.99
2023-03-07T02:51:15.000Z,80.96
2023-03-07T02:52:16.000Z,81.05
2023-03-07T02:53:15.000Z,81.46
2023-03-07T02:54:15.000Z,81.52
2023-03-07T02:55:15.000Z,81.60
2023-03-07T02:56:15.000Z,81.77
2023-03-07T02:57:15.000Z,81.79
2023-03-07T02:58:15.000Z,82.24
2023-03-07T02:59:15.000Z,82.24
2023-03-07T03:00:16.000Z,82.11
2023-03-07T03:01:16.000Z,82.07
2023-03-07T03:02:16.000Z,82.32
2023-03-07T03:03:15.000Z,82.50
2023-03-07T03:04:15.000Z,82.81
2023-03-07T03:05:16.000Z,82.97
2023-03-07T03:06:16.000Z,83.15
2023-03-07T03:07:16.000Z,83.15
2023-03-07T03:08:15.000Z,83.32
2023-03-07T03:09:15.000Z,83.55
2023-03-07T03:10:16.000Z,83.58
2023-03-07T03:11:15.000Z,83.47
2023-03-07T03:12:16.000Z,83.74
2023-03-07T03:13:15.000Z,84.14
2023-03-07T03:14:16.000Z,84.12
2023-03-07T03:15:15.000Z,84.29
2023-03-07T03:16:15.000Z,84.50
2023-03-07T03:17:16.000Z,84.63
2023-03-07T03:18:16.000Z,84.63
2023-03-07T03:19:15.000Z,84.56
2023-03-07T03:20:17.000Z,84.72
2023-03-07T03:21:16.000Z,84.94
2023-03-07T03:22:16.000Z,84.84
2023-03-07T03:23:16.000Z,84.87
2023-03-07T03:24:16.000Z,84.93
2023-03-07T03:25:16.000Z,85.25
2023-03-07T03:26:16.000Z,84.87
2023-03-07T03:27:16.000Z,84.88
2023-03-07T03:28:16.000Z,84.83
2023-03-07T03:29:16.000Z,85.00
2023-03-07T03:30:16.000Z,85.62
2023-03-07T03:31:16.000Z,85.59
2023-03-07T03:32:16.000Z,85.62
2023-03-07T03:33:16.000Z,85.55
2023-03-07T03:34:16.000Z,85.44
2023-03-07T03:35:16.000Z,85.45
2023-03-07T03:36:16.000Z,85.28
2023-03-07T03:37:16.000Z,85.56
2023-03-07T03:38:16.000Z,85.53
2023-03-07T03:39:16.000Z,85.61
2023-03-07T03:40:16.000Z,85.30
2023-03-07T03:41:16.000Z,85.11
2023-03-07T03:42:16.000Z,85.00
2023-03-07T03:43:17.000Z,85.30
2023-03-07T03:44:16.000Z,85.48
2023-03-07T03:45:16.000Z,85.45
2023-03-07T03:46:18.000Z,85.40
2023-03-07T03:47:16.000Z,85.34
2023-03-07T03:48:16.000Z,85.29
2023-03-07T03:49:16.000Z,85.04
2023-03-07T03:50:16.000Z,85.44
2023-03-07T03:51:16.000Z,85.45
2023-03-07T03:52:16.000Z,85.00
2023-03-07T03:53:15.000Z,84.93
2023-03-07T03:54:16.000Z,85.24
2023-03-07T03:55:16.000Z,85.00
2023-03-07T03:56:19.000Z,85.08
2023-03-07T03:57:19.000Z,84.75
2023-03-07T03:58:16.000Z,84.38
2023-03-07T03:59:16.000Z,84.74
2023-03-07T04:00:18.000Z,85.28
2023-03-07T04:01:17.000Z,84.84
2023-03-07T04:02:15.000Z,84.89
2023-03-07T04:03:15.000Z,84.51
2023-03-07T04:04:16.000Z,84.66
2023-03-07T04:05:16.000Z,84.78
2023-03-07T04:06:26.000Z,84.71
2023-03-07T04:07:15.000Z,84.63
2023-03-07T04:08:16.000Z,84.64
2023-03-07T04:09:16.000Z,84.21
2023-03-07T04:10:15.000Z,84.18
2023-03-07T04:11:16.000Z,84.22
2023-03-07T04:12:15.000Z,83.93
2023-03-07T04:13:15.000Z,83.85
2023-03-07T04:14:15.000Z,83.83
2023-03-07T04:15:16.000Z,83.91
2023-03-07T04:16:16.000Z,84.06
2023-03-07T04:17:15.000Z,83.87
2023-03-07T04:18:19.000Z,83.63
2023-03-07T04:19:16.000Z,83.40
2023-03-07T04:20:16.000Z,83.49
2023-03-07T04:21:16.000Z,83.24
2023-03-07T04:22:16.000Z,83.49
2023-03-07T04:23:17.000Z,83.33
2023-03-07T04:24:16.000Z,83.13
2023-03-07T04:25:16.000Z,82.91
2023-03-07T04:26:16.000Z,83.01
2023-03-07T04:27:16.000Z,82.85
2023-03-07T04:28:17.000Z,82.47
2023-03-07T04:29:16.000Z,82.09
2023-03-07T04:30:16.000Z,81.88
2023-03-07T04:31:22.000Z,81.79
2023-03-07T04:32:16.000Z,81.93
2023-03-07T04:33:16.000Z,82.09
2023-03-07T04:34:16.000Z,81.96
2023-03-07T04:35:16.000Z,81.89
2023-03-07T04:36:17.000Z,82.04
2023-03-07T04:37:16.000Z,82.05
2023-03-07T04:38:16.000Z,81.56
2023-03-07T04:39:16.000Z,81.48
2023-03-07T04:40:16.000Z,81.62
2023-03-07T04:41:21.000Z,81.51
2023-03-07T04:42:16.000Z,81.62
2023-03-07T04:43:16.000Z,81.64
2023-03-07T04:44:16.000Z,81.33
2023-03-07T04:45:16.000Z,81.39
2023-03-07T04:46:16.000Z,81.49
2023-03-07T04:47:16.000Z,81.48
2023-03-07T04:48:16.000Z,81.49
2023-03-07T04:49:16.000Z,81.44
2023-03-07T04:50:16.000Z,81.55
2023-03-07T04:51:16.000Z,81.52
2023-03-07T04:52:16.000Z,81.26
2023-03-07T04:53:17.000Z,81.04
2023-03-07T04:54:16.000Z,80.92
2023-03-07T04:55:16.000Z,80.74
2023-03-07T04:56:16.000Z,80.92
2023-03-07T04:57:15.000Z,80.83
2023-03-07T04:58:16.000Z,80.94
2023-03-07T04:59:15.000Z,80.78
2023-03-07T05:00:17.000Z,81.02
2023-03-07T05:01:16.000Z,80.94
2023-03-07T05:02:16.000Z,80.80
2023-03-07T05:03:16.000Z,80.61
2023-03-07T05:04:16.000Z,80.45
2023-03-07T05:05:16.000Z,80.30
2023-03-07T05:06:16.000Z,80.10
2023-03-07T05:07:15.000Z,79.99
2023-03-07T05:08:16.000Z,79.91
2023-03-07T05:09:16.000Z,79.94
2023-03-07T05:10:16.000Z,79.91
2023-03-07T05:11:16.000Z,79.81
2023-03-07T05:12:16.000Z,79.62
2023-03-07T05:13:16.000Z,79.62
2023-03-07T05:14:16.000Z,79.84
2023-03-07T05:15:16.000Z,79.62
2023-03-07T05:16:17.000Z,79.58
2023-03-07T05:17:17.000Z,79.60
2023-03-07T05:18:15.000Z,79.67
2023-03-07T05:19:16.000Z,79.70
2023-03-07T05:20:16.000Z,79.40
2023-03-07T05:21:16.000Z,79.34
2023-03-07T05:22:16.000Z,79.15
2023-03-07T05:23:17.000Z,79.07
2023-03-07T05:24:16.000Z,79.13
2023-03-07T05:25:16.000Z,78.99
2023-03-07T05:26:15.000Z,78.85
2023-03-07T05:27:15.000Z,78.70
2023-03-07T05:28:16.000Z,78.66
2023-03-07T05:29:16.000Z,78.70
2023-03-07T05:30:16.000Z,78.67
2023-03-07T05:31:16.000Z,78.54
2023-03-07T05:32:15.000Z,78.10
2023-03-07T05:33:16.000Z,78.19
2023-03-07T05:34:16.000Z,78.02
2023-03-07T05:35:16.000Z,78.21
2023-03-07T05:36:16.000Z,78.14
2023-03-07T05:37:15.000Z,78.14
2023-03-07T05:38:15.000Z,77.92
2023-03-07T05:39:15.000Z,77.76
2023-03-07T05:40:16.000Z,77.81
2023-03-07T05:41:16.000Z,77.93
2023-03-07T05:42:16.000Z,77.88
2023-03-07T05:43:15.000Z,77.68
2023-03-07T05:44:15.000Z,77.65
2023-03-07T05:45:15.000Z,77.67
2023-03-07T05:46:15.000Z,77.72
2023-03-07T05:47:16.000Z,77.65
2023-03-07T05:48:15.000Z,77.51
2023-03-07T05:49:16.000Z,77.60
2023-03-07T05:50:17.000Z,77.47
2023-03-07T05:51:15.000Z,77.50
2023-03-07T05:52:16.000Z,77.45
2023-03-07T05:53:15.000Z,77.47
2023-03-07T05:54:16.000Z,77.43
2023-03-07T05:55:16.000Z,77.43
2023-03-07T05:56:15.000Z,77.43
2023-03-07T05:57:15.000Z,77.04
2023-03-07T05:58:16.000Z,77.00
2023-03-07T05:59:16.000Z,76.80
2023-03-07T06:00:16.000Z,76.75
2023-03-07T06:01:15.000Z,76.69
2023-03-07T06:02:15.000Z,76.58
2023-03-07T06:03:15.000Z,76.66
2023-03-07T06:04:15.000Z,76.49
2023-03-07T06:05:16.000Z,76.44
2023-03-07T06:06:15.000Z,76.50
2023-03-07T06:07:16.000Z,76.55
2023-03-07T06:08:15.000Z,76.55
2023-03-07T06:09:16.000Z,76.50
2023-03-07T06:10:16.000Z,76.58
2023-03-07T06:11:15.000Z,76.40
2023-03-07T06:12:15.000Z,76.23
2023-03-07T06:13:23.000Z,75.89
2023-03-07T06:14:16.000Z,75.89
2023-03-07T06:15:16.000Z,76.02
2023-03-07T06:16:16.000Z,75.96
2023-03-07T06:17:15.000Z,75.77
2023-03-07T06:18:16.000Z,75.78
2023-03-07T06:19:15.000Z,75.64
2023-03-07T06:20:16.000Z,75.62
2023-03-07T06:21:17.000Z,75.59
2023-03-07T06:22:15.000Z,75.37
2023-03-07T06:23:15.000Z,75.21
2023-03-07T06:24:15.000Z,75.18
2023-03-07T06:25:16.000Z,75.18
2023-03-07T06:26:15.000Z,74.96
2023-03-07T06:27:16.000Z,74.95
2023-03-07T06:28:16.000Z,74.85
2023-03-07T06:29:16.000Z,74.94
2023-03-07T06:30:16.000Z,74.81
2023-03-07T06:31:17.000Z,74.78
2023-03-07T06:32:16.000Z,74.87
2023-03-07T06:33:16.000Z,74.86
2023-03-07T06:34:15.000Z,74.84
2023-03-07T06:35:16.000Z,74.57
2023-03-07T06:36:18.000Z,74.40
2023-03-07T06:37:16.000Z,74.33
2023-03-07T06:38:16.000Z,74.51
2023-03-07T06:39:19.000Z,74.57
2023-03-07T06:40:16.000Z,74.40
2023-03-07T06:41:16.000Z,74.38
2023-03-07T06:42:15.000Z,74.31
2023-03-07T06:43:16.000Z,74.21
2023-03-07T06:44:16.000Z,74.10
2023-03-07T06:45:16.000Z,74.11
2023-03-07T06:46:17.000Z,73.98
2023-03-07T06:47:15.000Z,74.04
2023-03-07T06:48:16.000Z,73.98
2023-03-07T06:49:15.000Z,74.02
2023-03-07T06:50:16.000Z,73.56
2023-03-07T06:51:16.000Z,73.52
2023-03-07T06:52:16.000Z,73.57
2023-03-07T06:53:16.000Z,73.42
2023-03-07T06:54:15.000Z,73.28
2023-03-07T06:55:18.000Z,73.30
2023-03-07T06:56:15.000Z,73.07
2023-03-07T06:57:15.000Z,72.97
2023-03-07T06:58:16.000Z,72.78
2023-03-07T06:59:15.000Z,72.76
2023-03-07T07:00:16.000Z,72.73
2023-03-07T07:01:17.000Z,72.79
2023-03-07T07:02:15.000Z,72.83
2023-03-07T07:03:18.000Z,72.69
2023-03-07T07:04:15.000Z,72.71
2023-03-07T07:05:16.000Z,72.70
2023-03-07T07:06:15.000Z,72.61
2023-03-07T07:07:16.000Z,72.44
2023-03-07T07:08:16.000Z,72.19
2023-03-07T07:09:15.000Z,72.30
2023-03-07T07:10:16.000Z,72.32
2023-03-07T07:11:15.000Z,72.34
2023-03-07T07:12:16.000Z,71.99
2023-03-07T07:13:15.000Z,71.73
2023-03-07T07:14:15.000Z,71.65
2023-03-07T07:15:15.000Z,71.61
2023-03-07T07:16:16.000Z,71.70
2023-03-07T07:17:15.000Z,71.55
2023-03-07T07:18:15.000Z,71.43
2023-03-07T07:19:16.000Z,71.40
2023-03-07T07:20:16.000Z,71.29
2023-03-07T07:21:16.000Z,71.25
2023-03-07T07:22:16.000Z,71.20
2023-03-07T07:23:15.000Z,71.31
2023-03-07T07:24:15.000Z,71.23
2023-03-07T07:25:16.000Z,71.11
2023-03-07T07:26:16.000Z,70.96
2023-03-07T07:27:16.000Z,70.88
2023-03-07T07:28:15.000Z,70.86
2023-03-07T07:29:15.000Z,71.04
2023-03-07T07:30:16.000Z,71.05
2023-03-07T07:31:16.000Z,70.88
2023-03-07T07:32:16.000Z,70.82
2023-03-07T07:33:16.000Z,70.55
2023-03-07T07:34:15.000Z,70.38
2023-03-07T07:35:15.000Z,70.21
2023-03-07T07:36:16.000Z,70.29
2023-03-07T07:37:16.000Z,69.72
2023-03-07T07:38:15.000Z,69.56
2023-03-07T07:39:16.000Z,69.73
2023-03-07T07:40:16.000Z,69.85
2023-03-07T07:41:17.000Z,69.87
2023-03-07T07:42:15.000Z,70.10
2023-03-07T07:43:16.000Z,70.08
2023-03-07T07:44:15.000Z,69.89
2023-03-07T07:45:15.000Z,69.63
2023-03-07T07:46:15.000Z,69.40
2023-03-07T07:47:15.000Z,69.39
2023-03-07T07:48:15.000Z,69.38
2023-03-07T07:49:16.000Z,69.42
2023-03-07T07:50:17.000Z,69.07
2023-03-07T07:51:16.000Z,68.86
2023-03-07T07:52:16.000Z,69.04
2023-03-07T07:53:16.000Z,69.06
2023-03-07T07:54:16.000Z,69.11
2023-03-07T07:55:16.000Z,69.04
2023-03-07T07:56:16.000Z,68.91
2023-03-07T07:57:15.000Z,69.12
2023-03-07T07:58:15.000Z,68.98
2023-03-07T07:59:15.000Z,68.95
2023-03-07T08:00:20.000Z,69.02
2023-03-07T08:01:19.000Z,69.10
2023-03-07T08:02:15.000Z,68.75
2023-03-07T08:03:15.000Z,68.74
2023-03-07T08:04:15.000Z,68.98
2023-03-07T08:05:17.000Z,68.71
2023-03-07T08:06:23.000Z,68.53
2023-03-07T08:07:16.000Z,68.31
2023-03-07T08:08:17.000Z,68.52
2023-03-07T08:09:15.000Z,68.45
2023-03-07T08:10:16.000Z,68.58
2023-03-07T08:11:17.000Z,68.12
2023-03-07T08:12:15.000Z,68.02
2023-03-07T08:13:16.000Z,67.89
2023-03-07T08:14:15.000Z,67.81
2023-03-07T08:15:17.000Z,67.51
2023-03-07T08:16:18.000Z,67.51
2023-03-07T08:17:15.000Z,67.73
2023-03-07T08:18:15.000Z,67.72
2023-03-07T08:19:16.000Z,67.56
2023-03-07T08:20:17.000Z,67.40
2023-03-07T08:21:15.000Z,67.04
2023-03-07T08:22:15.000Z,67.21
2023-03-07T08:23:15.000Z,67.17
2023-03-07T08:24:15.000Z,67.12
2023-03-07T08:25:19.000Z,66.78
2023-03-07T08:26:16.000Z,66.79
2023-03-07T08:27:15.000Z,66.65
2023-03-07T08:28:15.000Z,66.84
2023-03-07T08:29:15.000Z,66.51
2023-03-07T08:30:15.000Z,66.53
2023-03-07T08:31:21.000Z,66.46
2023-03-07T08:32:15.000Z,66.47
2023-03-07T08:33:15.000Z,66.28
2023-03-07T08:34:15.000Z,65.77
2023-03-07T08:35:16.000Z,65.96
2023-03-07T08:36:16.000Z,66.11
2023-03-07T08:37:15.000Z,66.30
2023-03-07T08:38:15.000Z,66.03
2023-03-07T08:39:15.000Z,65.74
2023-03-07T08:40:15.000Z,65.66
2023-03-07T08:41:16.000Z,65.65
2023-03-07T08:42:16.000Z,65.67
2023-03-07T08:43:15.000Z,65.69
2023-03-07T08:44:16.000Z,65.52
2023-03-07T08:45:15.000Z,65.44
2023-03-07T08:46:15.000Z,65.43
2023-03-07T08:47:15.000Z,65.33
2023-03-07T08:48:15.000Z,65.24
2023-03-07T08:49:15.000Z,65.19
2023-03-07T08:50:15.000Z,65.50
2023-03-07T08:51:16.000Z,65.28
2023-03-07T08:52:15.000Z,65.05
2023-03-07T08:53:15.000Z,64.86
2023-03-07T08:54:15.000Z,64.54
2023-03-07T08:55:15.000Z,63.97
2023-03-07T08:56:16.000Z,64.00
2023-03-07T08:57:15.000Z,63.87
2023-03-07T08:58:15.000Z,64.12
2023-03-07T08:59:15.000Z,63.84
2023-03-07T09:00:17.000Z,63.94
2023-03-07T09:01:15.000Z,63.36
2023-03-07T09:02:15.000Z,63.66
2023-03-07T09:03:15.000Z,63.66
2023-03-07T09:04:15.000Z,64.03
2023-03-07T09:05:15.000Z,63.86
2023-03-07T09:06:18.000Z,63.71
2023-03-07T09:07:15.000Z,63.64
2023-03-07T09:08:15.000Z,63.44
2023-03-07T09:09:15.000Z,63.53
2023-03-07T09:10:16.000Z,63.41
2023-03-07T09:11:16.000Z,63.60
2023-03-07T09:12:15.000Z,63.46
2023-03-07T09:13:16.000Z,63.00
2023-03-07T09:14:15.000Z,63.06
2023-03-07T09:15:16.000Z,63.20
2023-03-07T09:16:15.000Z,63.07
2023-03-07T09:17:17.000Z,63.45
2023-03-07T09:18:15.000Z,63.56
2023-03-07T09:19:15.000Z,63.21
2023-03-07T09:20:16.000Z,62.91
2023-03-07T09:21:15.000Z,62.22
2023-03-07T09:22:15.000Z,62.44
2023-03-07T09:23:15.000Z,62.78
2023-03-07T09:24:15.000Z,63.08
2023-03-07T09:25:16.000Z,63.05
2023-03-07T09:26:15.000Z,62.09
2023-03-07T09:27:15.000Z,61.76
2023-03-07T09:28:15.000Z,62.12
2023-03-07T09:29:16.000Z,62.00
2023-03-07T09:30:15.000Z,62.12
2023-03-07T09:31:15.000Z,62.20
2023-03-07T09:32:15.000Z,62.28
2023-03-07T09:33:15.000Z,62.16
2023-03-07T09:34:15.000Z,62.26
2023-03-07T09:35:16.000Z,62.24
2023-03-07T09:36:17.000Z,62.04
2023-03-07T09:37:17.000Z,62.31
2023-03-07T09:38:15.000Z,61.79
2023-03-07T09:39:15.000Z,61.74
2023-03-07T09:40:19.000Z,62.12
2023-03-07T09:41:41.000Z,62.14
2023-03-07T09:42:26.000Z,62.15
2023-03-07T09:43:21.000Z,61.52
2023-03-07T09:44:51.000Z,61.53
2023-03-07T09:45:30.000Z,61.51
2023-03-07T09:46:36.000Z,61.42
2023-03-07T09:47:25.000Z,61.93
2023-03-07T09:48:34.000Z,62.26
2023-03-07T09:49:28.000Z,62.14
2023-03-07T09:50:21.000Z,61.44
2023-03-07T09:51:38.000Z,61.68
2023-03-07T09:52:20.000Z,61.12
2023-03-07T09:53:26.000Z,61.14
2023-03-07T09:54:24.000Z,60.78
2023-03-07T09:55:19.000Z,60.48
2023-03-07T09:56:26.000Z,60.94
2023-03-07T09:57:22.000Z,60.49
2023-03-07T09:58:20.000Z,60.78
2023-03-07T09:59:31.000Z,60.73
2023-03-07T10:00:26.000Z,60.54
2023-03-07T10:01:22.000Z,60.36
2023-03-07T10:02:26.000Z,60.08
2023-03-07T10:03:31.000Z,59.76
2023-03-07T10:04:22.000Z,59.84
2023-03-07T10:05:26.000Z,60.24
2023-03-07T10:06:24.000Z,60.15
2023-03-07T10:07:19.000Z,60.02
2023-03-07T10:08:36.000Z,60.20
2023-03-07T10:09:20.000Z,60.21
2023-03-07T10:10:24.000Z,60.24
2023-03-07T10:11:43.000Z,60.42
2023-03-07T10:12:32.000Z,59.47
2023-03-07T10:13:39.000Z,59.59
2023-03-07T10:14:39.000Z,60.09
2023-03-07T10:15:38.000Z,59.33
2023-03-07T10:16:26.000Z,59.24
2023-03-07T10:17:37.000Z,59.17
2023-03-07T10:18:39.000Z,58.89
2023-03-07T10:19:30.000Z,59.50
2023-03-07T10:20:24.000Z,59.35
2023-03-07T10:21:26.000Z,59.14
2023-03-07T10:22:26.000Z,58.57
2023-03-07T10:23:26.000Z,58.61
2023-03-07T10:24:45.000Z,59.25
2023-03-07T10:25:26.000Z,58.87
2023-03-07T10:26:28.000Z,59.24
2023-03-07T10:27:20.000Z,59.25
2023-03-07T10:28:24.000Z,58.75
2023-03-07T10:29:20.000Z,58.26
2023-03-07T10:30:18.000Z,58.33
2023-03-07T10:31:27.000Z,58.29
2023-03-07T10:32:20.000Z,58.47
2023-03-07T10:33:18.000Z,58.54
2023-03-07T10:34:23.000Z,58.52
2023-03-07T10:35:22.000Z,57.23
2023-03-07T10:36:38.000Z,57.65
2023-03-07T10:37:18.000Z,57.46
2023-03-07T10:38:26.000Z,58.23
2023-03-07T10:39:26.000Z,57.39
2023-03-07T10:40:24.000Z,57.31
2023-03-07T10:41:19.000Z,56.76
2023-03-07T10:42:19.000Z,56.70
2023-03-07T10:43:22.000Z,56.63
2023-03-07T10:44:19.000Z,56.38
2023-03-07T10:45:16.000Z,56.53
2023-03-07T10:46:22.000Z,56.37
2023-03-07T10:47:19.000Z,56.20
2023-03-07T10:48:18.000Z,56.11
2023-03-07T10:49:20.000Z,55.54
2023-03-07T10:50:33.000Z,55.72
2023-03-07T10:51:39.000Z,55.84
2023-03-07T10:52:26.000Z,55.69
2023-03-07T10:53:23.000Z,55.83
2023-03-07T10:54:19.000Z,56.17
2023-03-07T10:55:26.000Z,56.25
2023-03-07T10:56:17.000Z,55.15
2023-03-07T10:57:17.000Z,55.45
2023-03-07T10:58:23.000Z,55.14
2023-03-07T10:59:23.000Z,55.43
2023-03-07T11:00:17.000Z,55.12
2023-03-07T11:01:18.000Z,54.93
2023-03-07T11:02:39.000Z,55.38
2023-03-07T11:03:26.000Z,54.96
2023-03-07T11:04:20.000Z,54.16
2023-03-07T11:05:28.000Z,54.43
2023-03-07T11:06:26.000Z,54.40
2023-03-07T11:07:25.000Z,54.89
2023-03-07T11:08:38.000Z,54.96
2023-03-07T11:09:25.000Z,54.86
2023-03-07T11:10:26.000Z,54.02
2023-03-07T11:11:29.000Z,54.17
2023-03-07T11:12:19.000Z,54.26
2023-03-07T11:13:18.000Z,53.89
2023-03-07T11:14:16.000Z,54.00
2023-03-07T11:15:21.000Z,53.66
2023-03-07T11:16:20.000Z,53.89
2023-03-07T11:17:19.000Z,53.79
2023-03-07T11:18:26.000Z,53.91
2023-03-07T11:19:24.000Z,53.88
2023-03-07T11:20:23.000Z,53.32
2023-03-07T11:21:25.000Z,53.48
2023-03-07T11:22:26.000Z,53.99
2023-03-07T11:23:25.000Z,53.75
2023-03-07T11:24:24.000Z,54.15
2023-03-07T11:25:21.000Z,53.80
2023-03-07T11:26:20.000Z,53.84
2023-03-07T11:27:26.000Z,53.69
2023-03-07T11:28:25.000Z,53.41
2023-03-07T11:29:16.000Z,53.75
2023-03-07T11:30:42.000Z,53.89
2023-03-07T11:31:27.000Z,53.30
2023-03-07T11:32:20.000Z,53.47
2023-03-07T11:33:23.000Z,53.78
2023-03-07T11:34:34.000Z,53.28
2023-03-07T11:35:19.000Z,53.61
2023-03-07T11:36:24.000Z,53.65
2023-03-07T11:37:25.000Z,53.58
2023-03-07T11:38:37.000Z,53.40
2023-03-07T11:39:39.000Z,53.08
2023-03-07T11:40:29.000Z,52.78
2023-03-07T11:41:25.000Z,53.03
2023-03-07T11:42:22.000Z,53.17
2023-03-07T11:43:21.000Z,52.98
2023-03-07T11:44:32.000Z,53.56
2023-03-07T11:45:31.000Z,53.06
2023-03-07T11:46:29.000Z,52.76
2023-03-07T11:47:25.000Z,53.33
2023-03-07T11:48:28.000Z,52.33
2023-03-07T11:49:40.000Z,52.92
2023-03-07T11:50:22.000Z,52.25
2023-03-07T11:51:25.000Z,52.64
2023-03-07T11:52:25.000Z,52.92
2023-03-07T11:53:26.000Z,52.59
2023-03-07T11:54:29.000Z,53.07
2023-03-07T11:55:25.000Z,52.87
2023-03-07T11:56:36.000Z,52.86
2023-03-07T11:57:49.000Z,52.19
2023-03-07T11:58:38.000Z,52.70
2023-03-07T11:59:30.000Z,52.67
2023-03-07T12:00:24.000Z,52.83
2023-03-07T12:01:28.000Z,52.84
2023-03-07T12:02:35.000Z,52.92
2023-03-07T12:03:25.000Z,52.98
2023-03-07T12:04:25.000Z,52.39
2023-03-07T12:05:36.000Z,52.48
2023-03-07T12:06:25.000Z,53.04
2023-03-07T12:07:41.000Z,53.16
2023-03-07T12:08:38.000Z,53.18
2023-03-07T12:09:39.000Z,52.65
2023-03-07T12:10:40.000Z,52.77
2023-03-07T12:11:30.000Z,52.90
2023-03-07T12:12:25.000Z,52.88
2023-03-07T12:13:46.000Z,52.75
2023-03-07T12:14:39.000Z,52.98
2023-03-07T12:15:38.000Z,52.81
2023-03-07T12:16:28.000Z,52.58
2023-03-07T12:17:34.000Z,51.97
2023-03-07T12:18:26.000Z,52.66
2023-03-07T12:19:44.000Z,52.02
2023-03-07T12:20:40.000Z,52.57
2023-03-07T12:21:30.000Z,52.66
2023-03-07T12:22:25.000Z,52.87
2023-03-07T12:23:24.000Z,52.50
2023-03-07T12:24:33.000Z,52.52
2023-03-07T12:25:31.000Z,52.03
2023-03-07T12:26:24.000Z,52.60
2023-03-07T12:27:30.000Z,52.19
2023-03-07T12:28:25.000Z,52.51
2023-03-07T12:29:29.000Z,52.09
2023-03-07T12:30:39.000Z,52.06
2023-03-07T12:31:25.000Z,52.34
2023-03-07T12:32:22.000Z,52.98
2023-03-07T12:33:27.000Z,52.99
2023-03-07T12:34:49.000Z,52.57
2023-03-07T12:35:23.000Z,52.63
2023-03-07T12:36:30.000Z,52.23
2023-03-07T12:37:31.000Z,52.26
2023-03-07T12:38:30.000Z,52.69
2023-03-07T12:39:25.000Z,52.99
2023-03-07T12:40:21.000Z,53.09
2023-03-07T12:41:42.000Z,52.72
2023-03-07T12:42:39.000Z,52.75
2023-03-07T12:43:25.000Z,52.64
2023-03-07T12:44:38.000Z,52.52
2023-03-07T12:45:19.000Z,52.15
2023-03-07T12:46:26.000Z,52.03
2023-03-07T12:47:26.000Z,52.00
2023-03-07T12:48:36.000Z,51.87
2023-03-07T12:49:26.000Z,52.18
2023-03-07T12:50:23.000Z,52.34
2023-03-07T12:51:27.000Z,52.34
2023-03-07T12:52:29.000Z,52.64